sensor_id;sensor_type;location;lat;lon;timestamp;P1;durP1;ratioP1;P2;durP2;ratioP2
48859;SDS011;34679;51.436;-2.518;2023-04-19T00:00:03;11.75;;;8.88;;
48859;SDS011;34679;51.436;-2.518;2023-04-19T00:02:32;14.88;;;9.60;;
48859;SDS011;34679;51.436;-2.518;2023-04-19T00:04:59;14.02;;;9.85;;
48859;SDS011;34679;51.436;-2.518;2023-04-19T00:07:25;14.13;;;9.00;;
48859;SDS011;34679;51.436;-2.518;2023-04-19T00:09:51;15.93;;;10.13;;
48859;SDS011;34679;51.436;-2.518;2023-04-19T00:12:17;14.30;;;9.82;;
48859;SDS011;34679;51.436;-2.518;2023-04-19T00:14:43;13.27;;;9.27;;
48859;SDS011;34679;51.436;-2.518;2023-04-19T00:17:09;15.30;;;10.02;;
48859;SDS011;34679;51.436;-2.518;2023-04-19T00:19:36;13.95;;;9.40;;
48859;SDS011;34679;51.436;-2.518;2023-04-19T00:22:02;16.92;;;10.30;;
48859;SDS011;34679;51.436;-2.518;2023-04-19T00:24:27;15.32;;;9.55;;
48859;SDS011;34679;51.436;-2.518;2023-04-19T00:26:53;15.43;;;9.90;;
48859;SDS011;34679;51.436;-2.518;2023-04-19T00:29:19;12.45;;;9.23;;
48859;SDS011;34679;51.436;-2.518;2023-04-19T00:31:45;14.05;;;9.18;;
48859;SDS011;34679;51.436;-2.518;2023-04-19T00:34:10;17.23;;;9.48;;
48859;SDS011;34679;51.436;-2.518;2023-04-19T00:36:36;12.70;;;10.20;;
48859;SDS011;34679;51.436;-2.518;2023-04-19T00:39:02;17.95;;;10.32;;
48859;SDS011;34679;51.436;-2.518;2023-04-19T00:41:27;15.98;;;10.68;;
48859;SDS011;34679;51.436;-2.518;2023-04-19T00:43:53;15.23;;;10.63;;
48859;SDS011;34679;51.436;-2.518;2023-04-19T00:46:19;14.30;;;10.70;;
48859;SDS011;34679;51.436;-2.518;2023-04-19T00:48:46;14.52;;;9.45;;
48859;SDS011;34679;51.436;-2.518;2023-04-19T00:51:12;13.23;;;9.90;;
48859;SDS011;34679;51.436;-2.518;2023-04-19T00:53:38;13.68;;;10.88;;
48859;SDS011;34679;51.436;-2.518;2023-04-19T00:56:05;15.27;;;10.70;;
48859;SDS011;34679;51.436;-2.518;2023-04-19T00:58:31;20.75;;;11.13;;
48859;SDS011;34679;51.436;-2.518;2023-04-19T01:00:57;17.20;;;10.85;;
48859;SDS011;34679;51.436;-2.518;2023-04-19T01:03:23;19.55;;;11.48;;
48859;SDS011;34679;51.436;-2.518;2023-04-19T01:05:51;18.38;;;11.52;;
48859;SDS011;34679;51.436;-2.518;2023-04-19T01:08:17;18.20;;;12.07;;
48859;SDS011;34679;51.436;-2.518;2023-04-19T01:10:43;15.35;;;11.43;;
48859;SDS011;34679;51.436;-2.518;2023-04-19T01:13:09;22.27;;;11.95;;
48859;SDS011;34679;51.436;-2.518;2023-04-19T01:15:35;21.60;;;11.00;;
48859;SDS011;34679;51.436;-2.518;2023-04-19T01:18:00;22.42;;;11.35;;
48859;SDS011;34679;51.436;-2.518;2023-04-19T01:20:26;25.10;;;12.35;;
48859;SDS011;34679;51.436;-2.518;2023-04-19T01:22:52;20.33;;;12.00;;
48859;SDS011;34679;51.436;-2.518;2023-04-19T01:25:18;23.08;;;11.98;;
48859;SDS011;34679;51.436;-2.518;2023-04-19T01:27:43;24.73;;;12.20;;
48859;SDS011;34679;51.436;-2.518;2023-04-19T01:30:09;29.38;;;13.48;;
48859;SDS011;34679;51.436;-2.518;2023-04-19T01:32:35;22.02;;;12.65;;
48859;SDS011;34679;51.436;-2.518;2023-04-19T01:35:01;29.63;;;13.15;;
48859;SDS011;34679;51.436;-2.518;2023-04-19T01:37:27;26.02;;;12.77;;
48859;SDS011;34679;51.436;-2.518;2023-04-19T01:39:53;33.08;;;13.27;;
48859;SDS011;34679;51.436;-2.518;2023-04-19T01:42:18;21.40;;;12.65;;
48859;SDS011;34679;51.436;-2.518;2023-04-19T01:44:44;28.85;;;13.63;;
48859;SDS011;34679;51.436;-2.518;2023-04-19T01:47:10;28.95;;;13.07;;
48859;SDS011;34679;51.436;-2.518;2023-04-19T01:49:35;30.92;;;12.95;;
48859;SDS011;34679;51.436;-2.518;2023-04-19T01:52:01;31.20;;;13.32;;
48859;SDS011;34679;51.436;-2.518;2023-04-19T01:54:27;25.13;;;13.15;;
48859;SDS011;34679;51.436;-2.518;2023-04-19T01:56:52;25.67;;;13.30;;
48859;SDS011;34679;51.436;-2.518;2023-04-19T01:59:18;29.60;;;13.50;;
48859;SDS011;34679;51.436;-2.518;2023-04-19T02:01:44;23.95;;;13.52;;
48859;SDS011;34679;51.436;-2.518;2023-04-19T02:04:09;21.88;;;12.23;;
48859;SDS011;34679;51.436;-2.518;2023-04-19T02:06:35;25.20;;;12.77;;
48859;SDS011;34679;51.436;-2.518;2023-04-19T02:09:01;23.75;;;13.52;;
48859;SDS011;34679;51.436;-2.518;2023-04-19T02:11:27;23.67;;;13.80;;
48859;SDS011;34679;51.436;-2.518;2023-04-19T02:13:52;28.20;;;15.07;;
48859;SDS011;34679;51.436;-2.518;2023-04-19T02:16:18;25.33;;;14.40;;
48859;SDS011;34679;51.436;-2.518;2023-04-19T02:18:44;31.80;;;14.75;;
48859;SDS011;34679;51.436;-2.518;2023-04-19T02:21:10;20.33;;;13.50;;
48859;SDS011;34679;51.436;-2.518;2023-04-19T02:23:36;29.63;;;14.32;;
48859;SDS011;34679;51.436;-2.518;2023-04-19T02:26:02;27.52;;;14.30;;
48859;SDS011;34679;51.436;-2.518;2023-04-19T02:28:31;29.50;;;14.55;;
48859;SDS011;34679;51.436;-2.518;2023-04-19T02:30:57;30.17;;;15.65;;
48859;SDS011;34679;51.436;-2.518;2023-04-19T02:33:24;28.65;;;14.88;;
48859;SDS011;34679;51.436;-2.518;2023-04-19T02:35:51;28.35;;;14.88;;
48859;SDS011;34679;51.436;-2.518;2023-04-19T02:38:16;29.48;;;15.18;;
48859;SDS011;34679;51.436;-2.518;2023-04-19T02:40:42;26.77;;;13.95;;
48859;SDS011;34679;51.436;-2.518;2023-04-19T02:43:08;31.58;;;17.00;;
48859;SDS011;34679;51.436;-2.518;2023-04-19T02:45:33;31.13;;;17.17;;
48859;SDS011;34679;51.436;-2.518;2023-04-19T02:48:00;35.30;;;16.35;;
48859;SDS011;34679;51.436;-2.518;2023-04-19T02:50:26;28.65;;;14.93;;
48859;SDS011;34679;51.436;-2.518;2023-04-19T02:52:52;26.38;;;15.65;;
48859;SDS011;34679;51.436;-2.518;2023-04-19T02:55:17;35.65;;;16.20;;
48859;SDS011;34679;51.436;-2.518;2023-04-19T02:57:43;30.85;;;15.85;;
48859;SDS011;34679;51.436;-2.518;2023-04-19T03:00:09;23.60;;;14.82;;
48859;SDS011;34679;51.436;-2.518;2023-04-19T03:02:35;36.67;;;17.40;;
48859;SDS011;34679;51.436;-2.518;2023-04-19T03:05:01;35.97;;;17.25;;
48859;SDS011;34679;51.436;-2.518;2023-04-19T03:07:28;35.70;;;17.42;;
48859;SDS011;34679;51.436;-2.518;2023-04-19T03:09:53;31.48;;;18.23;;
48859;SDS011;34679;51.436;-2.518;2023-04-19T03:12:19;38.17;;;17.00;;
48859;SDS011;34679;51.436;-2.518;2023-04-19T03:14:45;28.52;;;15.90;;
48859;SDS011;34679;51.436;-2.518;2023-04-19T03:17:11;36.45;;;17.92;;
48859;SDS011;34679;51.436;-2.518;2023-04-19T03:19:36;37.35;;;18.60;;
48859;SDS011;34679;51.436;-2.518;2023-04-19T03:22:02;34.50;;;19.38;;
48859;SDS011;34679;51.436;-2.518;2023-04-19T03:24:28;27.70;;;16.17;;
48859;SDS011;34679;51.436;-2.518;2023-04-19T03:26:55;32.25;;;16.52;;
48859;SDS011;34679;51.436;-2.518;2023-04-19T03:29:21;30.65;;;16.75;;
48859;SDS011;34679;51.436;-2.518;2023-04-19T03:31:47;39.63;;;19.83;;
48859;SDS011;34679;51.436;-2.518;2023-04-19T03:34:12;30.85;;;18.63;;
48859;SDS011;34679;51.436;-2.518;2023-04-19T03:36:38;26.30;;;17.55;;
48859;SDS011;34679;51.436;-2.518;2023-04-19T03:39:05;30.52;;;17.95;;
48859;SDS011;34679;51.436;-2.518;2023-04-19T03:41:30;39.00;;;18.88;;
48859;SDS011;34679;51.436;-2.518;2023-04-19T03:43:56;37.95;;;18.10;;
48859;SDS011;34679;51.436;-2.518;2023-04-19T03:46:22;36.15;;;19.10;;
48859;SDS011;34679;51.436;-2.518;2023-04-19T03:48:48;30.13;;;17.88;;
48859;SDS011;34679;51.436;-2.518;2023-04-19T03:51:15;31.65;;;18.13;;
48859;SDS011;34679;51.436;-2.518;2023-04-19T03:53:41;32.70;;;16.80;;
48859;SDS011;34679;51.436;-2.518;2023-04-19T03:56:07;36.58;;;18.67;;
48859;SDS011;34679;51.436;-2.518;2023-04-19T03:58:34;38.08;;;18.20;;
48859;SDS011;34679;51.436;-2.518;2023-04-19T04:01:01;34.78;;;19.33;;
48859;SDS011;34679;51.436;-2.518;2023-04-19T04:03:27;38.83;;;20.13;;
48859;SDS011;34679;51.436;-2.518;2023-04-19T04:05:52;31.38;;;17.50;;
48859;SDS011;34679;51.436;-2.518;2023-04-19T04:08:18;31.70;;;17.80;;
48859;SDS011;34679;51.436;-2.518;2023-04-19T04:10:44;28.70;;;17.17;;
48859;SDS011;34679;51.436;-2.518;2023-04-19T04:13:10;39.45;;;18.63;;
48859;SDS011;34679;51.436;-2.518;2023-04-19T04:15:35;37.53;;;17.10;;
48859;SDS011;34679;51.436;-2.518;2023-04-19T04:18:01;41.53;;;19.70;;
48859;SDS011;34679;51.436;-2.518;2023-04-19T04:20:27;40.05;;;20.23;;
48859;SDS011;34679;51.436;-2.518;2023-04-19T04:22:53;31.90;;;18.73;;
48859;SDS011;34679;51.436;-2.518;2023-04-19T04:25:18;34.20;;;18.67;;
48859;SDS011;34679;51.436;-2.518;2023-04-19T04:27:45;38.45;;;19.10;;
48859;SDS011;34679;51.436;-2.518;2023-04-19T04:30:11;30.48;;;18.60;;
48859;SDS011;34679;51.436;-2.518;2023-04-19T04:32:37;33.67;;;19.58;;
48859;SDS011;34679;51.436;-2.518;2023-04-19T04:35:05;33.63;;;19.40;;
48859;SDS011;34679;51.436;-2.518;2023-04-19T04:37:32;37.13;;;18.02;;
48859;SDS011;34679;51.436;-2.518;2023-04-19T04:39:59;27.45;;;17.20;;
48859;SDS011;34679;51.436;-2.518;2023-04-19T04:42:25;36.00;;;19.52;;
48859;SDS011;34679;51.436;-2.518;2023-04-19T04:44:51;33.20;;;18.65;;
48859;SDS011;34679;51.436;-2.518;2023-04-19T04:47:18;41.72;;;19.83;;
48859;SDS011;34679;51.436;-2.518;2023-04-19T04:49:45;32.08;;;18.75;;
48859;SDS011;34679;51.436;-2.518;2023-04-19T04:52:11;33.35;;;19.63;;
48859;SDS011;34679;51.436;-2.518;2023-04-19T04:54:36;30.50;;;17.08;;
48859;SDS011;34679;51.436;-2.518;2023-04-19T04:57:02;29.67;;;17.65;;
48859;SDS011;34679;51.436;-2.518;2023-04-19T04:59:28;35.70;;;20.23;;
48859;SDS011;34679;51.436;-2.518;2023-04-19T05:01:53;35.53;;;19.30;;
48859;SDS011;34679;51.436;-2.518;2023-04-19T05:04:19;38.90;;;17.40;;
48859;SDS011;34679;51.436;-2.518;2023-04-19T05:06:45;38.10;;;19.63;;
48859;SDS011;34679;51.436;-2.518;2023-04-19T05:09:10;34.85;;;19.95;;
48859;SDS011;34679;51.436;-2.518;2023-04-19T05:11:36;43.80;;;19.55;;
48859;SDS011;34679;51.436;-2.518;2023-04-19T05:14:02;27.90;;;17.77;;
48859;SDS011;34679;51.436;-2.518;2023-04-19T05:16:28;35.30;;;19.90;;
48859;SDS011;34679;51.436;-2.518;2023-04-19T05:18:54;31.38;;;19.10;;
48859;SDS011;34679;51.436;-2.518;2023-04-19T05:21:20;32.58;;;18.40;;
48859;SDS011;34679;51.436;-2.518;2023-04-19T05:23:46;40.92;;;17.90;;
48859;SDS011;34679;51.436;-2.518;2023-04-19T05:26:12;34.63;;;18.27;;
48859;SDS011;34679;51.436;-2.518;2023-04-19T05:28:40;42.90;;;18.35;;
48859;SDS011;34679;51.436;-2.518;2023-04-19T05:31:09;33.60;;;18.90;;
48859;SDS011;34679;51.436;-2.518;2023-04-19T05:33:35;31.40;;;19.40;;
48859;SDS011;34679;51.436;-2.518;2023-04-19T05:36:01;33.80;;;19.85;;
48859;SDS011;34679;51.436;-2.518;2023-04-19T05:38:26;30.63;;;20.30;;
48859;SDS011;34679;51.436;-2.518;2023-04-19T05:40:52;34.30;;;19.60;;
48859;SDS011;34679;51.436;-2.518;2023-04-19T05:43:18;37.50;;;20.95;;
48859;SDS011;34679;51.436;-2.518;2023-04-19T05:45:43;41.80;;;21.35;;
48859;SDS011;34679;51.436;-2.518;2023-04-19T05:48:09;33.83;;;20.23;;
48859;SDS011;34679;51.436;-2.518;2023-04-19T05:50:35;33.65;;;20.85;;
48859;SDS011;34679;51.436;-2.518;2023-04-19T05:53:01;36.17;;;21.05;;
48859;SDS011;34679;51.436;-2.518;2023-04-19T05:55:27;44.65;;;22.13;;
48859;SDS011;34679;51.436;-2.518;2023-04-19T05:57:53;38.90;;;20.50;;
48859;SDS011;34679;51.436;-2.518;2023-04-19T06:00:18;35.25;;;21.52;;
48859;SDS011;34679;51.436;-2.518;2023-04-19T06:02:44;30.80;;;20.75;;
48859;SDS011;34679;51.436;-2.518;2023-04-19T06:05:10;31.20;;;20.42;;
48859;SDS011;34679;51.436;-2.518;2023-04-19T06:07:36;41.33;;;20.33;;
48859;SDS011;34679;51.436;-2.518;2023-04-19T06:10:02;36.20;;;20.25;;
48859;SDS011;34679;51.436;-2.518;2023-04-19T06:12:28;34.30;;;17.83;;
48859;SDS011;34679;51.436;-2.518;2023-04-19T06:14:54;36.60;;;22.15;;
48859;SDS011;34679;51.436;-2.518;2023-04-19T06:17:19;33.13;;;19.85;;
48859;SDS011;34679;51.436;-2.518;2023-04-19T06:19:48;33.30;;;18.55;;
48859;SDS011;34679;51.436;-2.518;2023-04-19T06:22:14;35.03;;;21.83;;
48859;SDS011;34679;51.436;-2.518;2023-04-19T06:24:40;32.65;;;17.38;;
48859;SDS011;34679;51.436;-2.518;2023-04-19T06:27:08;36.28;;;21.65;;
48859;SDS011;34679;51.436;-2.518;2023-04-19T06:29:33;35.88;;;20.33;;
48859;SDS011;34679;51.436;-2.518;2023-04-19T06:31:59;41.25;;;22.17;;
48859;SDS011;34679;51.436;-2.518;2023-04-19T06:34:25;37.55;;;23.15;;
48859;SDS011;34679;51.436;-2.518;2023-04-19T06:36:50;31.75;;;19.77;;
48859;SDS011;34679;51.436;-2.518;2023-04-19T06:39:16;30.98;;;20.92;;
48859;SDS011;34679;51.436;-2.518;2023-04-19T06:41:42;37.63;;;22.10;;
48859;SDS011;34679;51.436;-2.518;2023-04-19T06:44:07;36.90;;;22.23;;
48859;SDS011;34679;51.436;-2.518;2023-04-19T06:46:33;39.00;;;23.05;;
48859;SDS011;34679;51.436;-2.518;2023-04-19T06:48:59;37.22;;;21.65;;
48859;SDS011;34679;51.436;-2.518;2023-04-19T06:51:25;33.00;;;21.33;;
48859;SDS011;34679;51.436;-2.518;2023-04-19T06:53:50;36.47;;;22.05;;
48859;SDS011;34679;51.436;-2.518;2023-04-19T06:56:16;41.45;;;22.45;;
48859;SDS011;34679;51.436;-2.518;2023-04-19T06:58:42;38.88;;;22.23;;
48859;SDS011;34679;51.436;-2.518;2023-04-19T07:01:07;36.70;;;22.10;;
48859;SDS011;34679;51.436;-2.518;2023-04-19T07:03:33;44.80;;;24.77;;
48859;SDS011;34679;51.436;-2.518;2023-04-19T07:05:59;37.97;;;24.05;;
48859;SDS011;34679;51.436;-2.518;2023-04-19T07:08:25;34.80;;;23.38;;
48859;SDS011;34679;51.436;-2.518;2023-04-19T07:10:51;38.92;;;25.38;;
48859;SDS011;34679;51.436;-2.518;2023-04-19T07:13:17;40.38;;;24.58;;
48859;SDS011;34679;51.436;-2.518;2023-04-19T07:15:43;35.60;;;25.67;;
48859;SDS011;34679;51.436;-2.518;2023-04-19T07:18:08;36.55;;;25.02;;
48859;SDS011;34679;51.436;-2.518;2023-04-19T07:20:35;36.08;;;23.20;;
48859;SDS011;34679;51.436;-2.518;2023-04-19T07:23:00;44.25;;;26.05;;
48859;SDS011;34679;51.436;-2.518;2023-04-19T07:25:26;44.30;;;28.13;;
48859;SDS011;34679;51.436;-2.518;2023-04-19T07:27:52;37.72;;;25.95;;
48859;SDS011;34679;51.436;-2.518;2023-04-19T07:30:18;39.30;;;25.63;;
48859;SDS011;34679;51.436;-2.518;2023-04-19T07:32:45;40.55;;;25.65;;
48859;SDS011;34679;51.436;-2.518;2023-04-19T07:35:10;44.55;;;27.30;;
48859;SDS011;34679;51.436;-2.518;2023-04-19T07:37:36;39.70;;;26.77;;
48859;SDS011;34679;51.436;-2.518;2023-04-19T07:40:02;41.70;;;28.00;;
48859;SDS011;34679;51.436;-2.518;2023-04-19T07:42:29;34.17;;;25.48;;
48859;SDS011;34679;51.436;-2.518;2023-04-19T07:44:55;42.60;;;28.27;;
48859;SDS011;34679;51.436;-2.518;2023-04-19T07:47:21;38.72;;;26.15;;
48859;SDS011;34679;51.436;-2.518;2023-04-19T07:49:50;32.65;;;22.23;;
48859;SDS011;34679;51.436;-2.518;2023-04-19T07:52:16;37.58;;;26.10;;
48859;SDS011;34679;51.436;-2.518;2023-04-19T07:54:42;31.70;;;24.00;;
48859;SDS011;34679;51.436;-2.518;2023-04-19T07:57:08;40.58;;;25.25;;
48859;SDS011;34679;51.436;-2.518;2023-04-19T07:59:34;37.00;;;25.20;;
48859;SDS011;34679;51.436;-2.518;2023-04-19T08:01:59;38.15;;;26.00;;
48859;SDS011;34679;51.436;-2.518;2023-04-19T08:04:25;38.00;;;24.95;;
48859;SDS011;34679;51.436;-2.518;2023-04-19T08:06:51;36.45;;;25.20;;
48859;SDS011;34679;51.436;-2.518;2023-04-19T08:09:17;37.22;;;24.45;;
48859;SDS011;34679;51.436;-2.518;2023-04-19T08:11:43;38.78;;;24.42;;
48859;SDS011;34679;51.436;-2.518;2023-04-19T08:14:08;38.00;;;25.15;;
48859;SDS011;34679;51.436;-2.518;2023-04-19T08:16:34;33.00;;;23.55;;
48859;SDS011;34679;51.436;-2.518;2023-04-19T08:19:00;31.05;;;23.08;;
48859;SDS011;34679;51.436;-2.518;2023-04-19T08:21:26;36.92;;;22.02;;
48859;SDS011;34679;51.436;-2.518;2023-04-19T08:23:51;36.08;;;23.88;;
48859;SDS011;34679;51.436;-2.518;2023-04-19T08:26:17;32.60;;;23.48;;
48859;SDS011;34679;51.436;-2.518;2023-04-19T08:28:43;33.20;;;23.98;;
48859;SDS011;34679;51.436;-2.518;2023-04-19T08:31:09;42.60;;;26.50;;
48859;SDS011;34679;51.436;-2.518;2023-04-19T08:33:34;31.38;;;19.33;;
48859;SDS011;34679;51.436;-2.518;2023-04-19T08:36:00;38.17;;;26.00;;
48859;SDS011;34679;51.436;-2.518;2023-04-19T08:38:26;36.78;;;23.98;;
48859;SDS011;34679;51.436;-2.518;2023-04-19T08:40:52;36.40;;;25.05;;
48859;SDS011;34679;51.436;-2.518;2023-04-19T08:43:19;37.75;;;25.38;;
48859;SDS011;34679;51.436;-2.518;2023-04-19T08:45:48;37.58;;;24.05;;
48859;SDS011;34679;51.436;-2.518;2023-04-19T08:48:15;36.60;;;22.35;;
48859;SDS011;34679;51.436;-2.518;2023-04-19T08:50:41;37.85;;;27.33;;
48859;SDS011;34679;51.436;-2.518;2023-04-19T08:53:08;34.40;;;23.80;;
48859;SDS011;34679;51.436;-2.518;2023-04-19T08:55:39;32.83;;;25.45;;
48859;SDS011;34679;51.436;-2.518;2023-04-19T08:58:05;41.45;;;27.20;;
48859;SDS011;34679;51.436;-2.518;2023-04-19T09:00:32;36.00;;;22.75;;
48859;SDS011;34679;51.436;-2.518;2023-04-19T09:02:58;34.50;;;24.65;;
48859;SDS011;34679;51.436;-2.518;2023-04-19T09:05:24;31.33;;;22.40;;
48859;SDS011;34679;51.436;-2.518;2023-04-19T09:07:49;34.10;;;24.50;;
48859;SDS011;34679;51.436;-2.518;2023-04-19T09:10:16;33.42;;;26.52;;
48859;SDS011;34679;51.436;-2.518;2023-04-19T09:13:03;32.40;;;23.45;;
48859;SDS011;34679;51.436;-2.518;2023-04-19T09:18:03;35.47;;;24.75;;
48859;SDS011;34679;51.436;-2.518;2023-04-19T09:20:49;36.35;;;22.67;;
48859;SDS011;34679;51.436;-2.518;2023-04-19T09:23:21;37.38;;;25.80;;
48859;SDS011;34679;51.436;-2.518;2023-04-19T09:26:01;30.42;;;21.90;;
48859;SDS011;34679;51.436;-2.518;2023-04-19T09:28:28;35.33;;;23.52;;
48859;SDS011;34679;51.436;-2.518;2023-04-19T09:30:55;33.70;;;24.85;;
48859;SDS011;34679;51.436;-2.518;2023-04-19T09:33:31;30.35;;;19.75;;
48859;SDS011;34679;51.436;-2.518;2023-04-19T09:35:59;30.35;;;23.40;;
48859;SDS011;34679;51.436;-2.518;2023-04-19T09:38:25;37.17;;;21.95;;
48859;SDS011;34679;51.436;-2.518;2023-04-19T09:40:51;27.80;;;19.52;;
48859;SDS011;34679;51.436;-2.518;2023-04-19T09:43:29;32.10;;;22.75;;
48859;SDS011;34679;51.436;-2.518;2023-04-19T09:45:54;35.70;;;22.85;;
48859;SDS011;34679;51.436;-2.518;2023-04-19T09:48:21;32.55;;;24.48;;
48859;SDS011;34679;51.436;-2.518;2023-04-19T09:50:59;24.15;;;20.35;;
48859;SDS011;34679;51.436;-2.518;2023-04-19T09:53:27;34.38;;;23.92;;
48859;SDS011;34679;51.436;-2.518;2023-04-19T09:55:56;31.25;;;23.90;;
48859;SDS011;34679;51.436;-2.518;2023-04-19T09:58:22;29.80;;;18.65;;
48859;SDS011;34679;51.436;-2.518;2023-04-19T10:00:48;33.63;;;23.48;;
48859;SDS011;34679;51.436;-2.518;2023-04-19T10:03:16;29.92;;;21.67;;
48859;SDS011;34679;51.436;-2.518;2023-04-19T10:05:43;20.13;;;13.98;;
48859;SDS011;34679;51.436;-2.518;2023-04-19T10:08:10;32.85;;;21.58;;
48859;SDS011;34679;51.436;-2.518;2023-04-19T10:10:36;29.38;;;22.95;;
48859;SDS011;34679;51.436;-2.518;2023-04-19T10:13:06;30.80;;;23.63;;
48859;SDS011;34679;51.436;-2.518;2023-04-19T10:15:35;33.65;;;23.00;;
48859;SDS011;34679;51.436;-2.518;2023-04-19T10:18:04;24.92;;;19.75;;
48859;SDS011;34679;51.436;-2.518;2023-04-19T10:20:33;26.40;;;20.23;;
48859;SDS011;34679;51.436;-2.518;2023-04-19T10:23:01;24.48;;;20.08;;
48859;SDS011;34679;51.436;-2.518;2023-04-19T10:25:28;31.52;;;19.80;;
48859;SDS011;34679;51.436;-2.518;2023-04-19T10:27:54;26.27;;;21.23;;
48859;SDS011;34679;51.436;-2.518;2023-04-19T10:30:21;24.52;;;19.75;;
48859;SDS011;34679;51.436;-2.518;2023-04-19T10:32:52;33.30;;;18.35;;
48859;SDS011;34679;51.436;-2.518;2023-04-19T10:35:26;25.48;;;18.42;;
48859;SDS011;34679;51.436;-2.518;2023-04-19T10:38:11;27.67;;;21.05;;
48859;SDS011;34679;51.436;-2.518;2023-04-19T10:43:19;26.73;;;20.70;;
48859;SDS011;34679;51.436;-2.518;2023-04-19T10:45:46;25.60;;;18.95;;
48859;SDS011;34679;51.436;-2.518;2023-04-19T10:49:12;25.30;;;18.73;;
48859;SDS011;34679;51.436;-2.518;2023-04-19T10:51:27;25.35;;;18.65;;
48859;SDS011;34679;51.436;-2.518;2023-04-19T10:54:44;29.80;;;20.92;;
48859;SDS011;34679;51.436;-2.518;2023-04-19T10:57:07;29.50;;;17.50;;
48859;SDS011;34679;51.436;-2.518;2023-04-19T11:02:01;27.55;;;19.08;;
48859;SDS011;34679;51.436;-2.518;2023-04-19T11:07:17;23.38;;;18.30;;
48859;SDS011;34679;51.436;-2.518;2023-04-19T11:09:45;22.92;;;16.90;;
48859;SDS011;34679;51.436;-2.518;2023-04-19T11:12:15;25.05;;;18.27;;
48859;SDS011;34679;51.436;-2.518;2023-04-19T11:17:24;19.05;;;15.73;;
48859;SDS011;34679;51.436;-2.518;2023-04-19T11:19:54;25.30;;;16.25;;
48859;SDS011;34679;51.436;-2.518;2023-04-19T11:22:25;22.33;;;17.27;;
48859;SDS011;34679;51.436;-2.518;2023-04-19T11:24:55;28.45;;;17.08;;
48859;SDS011;34679;51.436;-2.518;2023-04-19T11:27:21;18.45;;;15.93;;
48859;SDS011;34679;51.436;-2.518;2023-04-19T11:29:46;20.23;;;16.25;;
48859;SDS011;34679;51.436;-2.518;2023-04-19T11:32:12;19.00;;;15.98;;
48859;SDS011;34679;51.436;-2.518;2023-04-19T11:34:39;20.15;;;14.55;;
48859;SDS011;34679;51.436;-2.518;2023-04-19T11:37:05;17.65;;;15.68;;
48859;SDS011;34679;51.436;-2.518;2023-04-19T11:39:31;19.98;;;16.33;;
48859;SDS011;34679;51.436;-2.518;2023-04-19T11:41:56;18.73;;;15.32;;
48859;SDS011;34679;51.436;-2.518;2023-04-19T11:44:23;18.52;;;12.98;;
48859;SDS011;34679;51.436;-2.518;2023-04-19T11:47:22;19.52;;;13.80;;
48859;SDS011;34679;51.436;-2.518;2023-04-19T11:49:41;19.10;;;15.07;;
48859;SDS011;34679;51.436;-2.518;2023-04-19T11:52:07;12.32;;;8.25;;
48859;SDS011;34679;51.436;-2.518;2023-04-19T11:54:32;18.67;;;12.80;;
48859;SDS011;34679;51.436;-2.518;2023-04-19T11:57:05;13.93;;;12.02;;
48859;SDS011;34679;51.436;-2.518;2023-04-19T11:59:32;13.30;;;9.55;;
48859;SDS011;34679;51.436;-2.518;2023-04-19T12:04:35;18.50;;;14.57;;
48859;SDS011;34679;51.436;-2.518;2023-04-19T12:07:01;18.25;;;13.48;;
48859;SDS011;34679;51.436;-2.518;2023-04-19T12:09:28;21.77;;;15.52;;
48859;SDS011;34679;51.436;-2.518;2023-04-19T12:11:54;21.02;;;15.05;;
48859;SDS011;34679;51.436;-2.518;2023-04-19T12:14:21;19.65;;;14.32;;
48859;SDS011;34679;51.436;-2.518;2023-04-19T12:19:42;15.88;;;14.18;;
48859;SDS011;34679;51.436;-2.518;2023-04-19T12:22:14;18.70;;;15.40;;
48859;SDS011;34679;51.436;-2.518;2023-04-19T12:24:40;16.63;;;13.57;;
48859;SDS011;34679;51.436;-2.518;2023-04-19T12:27:07;19.30;;;14.00;;
48859;SDS011;34679;51.436;-2.518;2023-04-19T12:29:33;17.63;;;11.02;;
48859;SDS011;34679;51.436;-2.518;2023-04-19T12:31:59;14.90;;;11.45;;
48859;SDS011;34679;51.436;-2.518;2023-04-19T12:34:26;18.05;;;13.60;;
48859;SDS011;34679;51.436;-2.518;2023-04-19T12:36:52;19.42;;;14.77;;
48859;SDS011;34679;51.436;-2.518;2023-04-19T12:39:18;17.42;;;14.18;;
48859;SDS011;34679;51.436;-2.518;2023-04-19T12:41:44;17.40;;;13.82;;
48859;SDS011;34679;51.436;-2.518;2023-04-19T12:44:12;16.85;;;14.05;;
48859;SDS011;34679;51.436;-2.518;2023-04-19T12:46:38;18.77;;;15.15;;
48859;SDS011;34679;51.436;-2.518;2023-04-19T12:49:03;12.40;;;11.07;;
48859;SDS011;34679;51.436;-2.518;2023-04-19T12:51:29;11.77;;;10.25;;
48859;SDS011;34679;51.436;-2.518;2023-04-19T12:53:56;20.42;;;15.70;;
48859;SDS011;34679;51.436;-2.518;2023-04-19T12:56:22;19.40;;;14.88;;
48859;SDS011;34679;51.436;-2.518;2023-04-19T12:58:48;18.73;;;14.20;;
48859;SDS011;34679;51.436;-2.518;2023-04-19T13:01:13;16.42;;;10.82;;
48859;SDS011;34679;51.436;-2.518;2023-04-19T13:03:39;21.45;;;16.15;;
48859;SDS011;34679;51.436;-2.518;2023-04-19T13:06:05;20.08;;;14.63;;
48859;SDS011;34679;51.436;-2.518;2023-04-19T13:08:31;23.33;;;14.95;;
48859;SDS011;34679;51.436;-2.518;2023-04-19T13:10:57;18.98;;;14.48;;
48859;SDS011;34679;51.436;-2.518;2023-04-19T13:13:25;17.27;;;12.45;;
48859;SDS011;34679;51.436;-2.518;2023-04-19T13:15:51;20.50;;;15.55;;
48859;SDS011;34679;51.436;-2.518;2023-04-19T13:18:17;24.23;;;14.63;;
48859;SDS011;34679;51.436;-2.518;2023-04-19T13:20:43;20.65;;;17.05;;
48859;SDS011;34679;51.436;-2.518;2023-04-19T13:23:09;18.20;;;15.07;;
48859;SDS011;34679;51.436;-2.518;2023-04-19T13:25:35;17.95;;;13.68;;
48859;SDS011;34679;51.436;-2.518;2023-04-19T13:28:00;17.80;;;14.27;;
48859;SDS011;34679;51.436;-2.518;2023-04-19T13:30:26;22.83;;;15.40;;
48859;SDS011;34679;51.436;-2.518;2023-04-19T13:32:52;15.95;;;13.82;;
48859;SDS011;34679;51.436;-2.518;2023-04-19T13:35:18;17.50;;;13.25;;
48859;SDS011;34679;51.436;-2.518;2023-04-19T13:37:43;23.63;;;13.63;;
48859;SDS011;34679;51.436;-2.518;2023-04-19T13:40:11;17.02;;;14.30;;
48859;SDS011;34679;51.436;-2.518;2023-04-19T13:42:37;17.08;;;13.80;;
48859;SDS011;34679;51.436;-2.518;2023-04-19T13:45:03;14.95;;;12.80;;
48859;SDS011;34679;51.436;-2.518;2023-04-19T13:47:29;16.80;;;12.90;;
48859;SDS011;34679;51.436;-2.518;2023-04-19T13:49:55;16.20;;;11.82;;
48859;SDS011;34679;51.436;-2.518;2023-04-19T13:52:21;15.63;;;13.13;;
48859;SDS011;34679;51.436;-2.518;2023-04-19T13:54:47;20.75;;;13.50;;
48859;SDS011;34679;51.436;-2.518;2023-04-19T13:57:13;17.05;;;13.43;;
48859;SDS011;34679;51.436;-2.518;2023-04-19T13:59:39;16.52;;;13.32;;
48859;SDS011;34679;51.436;-2.518;2023-04-19T14:02:05;16.50;;;13.07;;
48859;SDS011;34679;51.436;-2.518;2023-04-19T14:04:31;16.63;;;13.05;;
48859;SDS011;34679;51.436;-2.518;2023-04-19T14:06:57;15.50;;;12.35;;
48859;SDS011;34679;51.436;-2.518;2023-04-19T14:09:22;17.23;;;12.32;;
48859;SDS011;34679;51.436;-2.518;2023-04-19T14:11:49;13.23;;;11.73;;
48859;SDS011;34679;51.436;-2.518;2023-04-19T14:14:15;13.98;;;11.20;;
48859;SDS011;34679;51.436;-2.518;2023-04-19T14:16:41;11.32;;;8.85;;
48859;SDS011;34679;51.436;-2.518;2023-04-19T14:19:07;13.90;;;10.50;;
48859;SDS011;34679;51.436;-2.518;2023-04-19T14:21:33;12.95;;;10.07;;
48859;SDS011;34679;51.436;-2.518;2023-04-19T14:23:59;13.88;;;8.38;;